createdAt,value
2022-09-21T00:00:29.763Z,90.28
2022-09-21T00:01:30.031Z,90.24
2022-09-21T00:02:30.154Z,90.23
2022-09-21T00:03:30.161Z,90.17
2022-09-21T00:04:30.316Z,90.14
2022-09-21T00:05:30.490Z,90.15
2022-09-21T00:06:30.601Z,90.10
2022-09-21T00:07:30.694Z,90.08
2022-09-21T00:08:30.820Z,90.05
2022-09-21T00:09:30.941Z,90.05
2022-09-21T00:10:31.082Z,90.08
2022-09-21T00:11:31.242Z,90.06
2022-09-21T00:12:31.348Z,90.10
2022-09-21T00:13:31.494Z,90.14
2022-09-21T00:14:31.625Z,90.23
2022-09-21T00:15:31.718Z,90.29
2022-09-21T00:16:31.988Z,90.30
2022-09-21T00:17:31.989Z,90.27
2022-09-21T00:18:32.119Z,90.22
2022-09-21T00:19:32.253Z,90.28
2022-09-21T00:20:32.377Z,90.32
2022-09-21T00:21:32.657Z,90.34
2022-09-21T00:22:32.627Z,90.32
2022-09-21T00:23:32.767Z,90.32
2022-09-21T00:24:32.901Z,90.31
2022-09-21T00:25:33.060Z,90.30
2022-09-21T00:26:33.205Z,90.25
2022-09-21T00:27:33.295Z,90.24
2022-09-21T00:28:33.427Z,90.23
2022-09-21T00:29:33.568Z,90.21
2022-09-21T00:30:33.736Z,90.19
2022-09-21T00:31:34.007Z,90.15
2022-09-21T00:32:33.959Z,90.09
2022-09-21T00:33:34.084Z,90.04
2022-09-21T00:34:34.214Z,90.05
2022-09-21T00:35:34.357Z,90.13
2022-09-21T00:36:34.523Z,90.19
2022-09-21T00:37:34.603Z,90.25
2022-09-21T00:38:34.754Z,90.35
2022-09-21T00:39:34.893Z,90.38
2022-09-21T00:40:35.055Z,90.40
2022-09-21T00:41:35.172Z,90.39
2022-09-21T00:42:35.288Z,90.38
2022-09-21T00:43:35.398Z,90.37
2022-09-21T00:44:35.519Z,90.35
2022-09-21T00:45:35.672Z,90.34
2022-09-21T00:46:35.785Z,90.37
2022-09-21T00:47:35.881Z,90.41
2022-09-21T00:48:36.030Z,90.44
2022-09-21T00:49:36.139Z,90.46
2022-09-21T00:50:36.306Z,90.46
2022-09-21T00:51:36.391Z,90.45
2022-09-21T00:52:37.479Z,90.47
2022-09-21T00:53:36.622Z,90.53
2022-09-21T00:54:36.780Z,90.58
2022-09-21T00:55:36.892Z,90.63
2022-09-21T00:56:37.059Z,90.68
2022-09-21T00:57:37.142Z,90.66
2022-09-21T00:58:37.280Z,90.69
2022-09-21T00:59:37.359Z,90.66
2022-09-21T01:00:37.647Z,90.66
2022-09-21T01:01:37.758Z,90.70
2022-09-21T01:02:37.761Z,90.73
2022-09-21T01:03:37.852Z,90.77
2022-09-21T01:04:37.992Z,90.77
2022-09-21T01:05:38.131Z,90.70
2022-09-21T01:06:38.319Z,90.67
2022-09-21T01:07:38.407Z,90.67
2022-09-21T01:08:38.543Z,90.69
2022-09-21T01:09:38.687Z,90.68
2022-09-21T01:10:38.858Z,90.66
2022-09-21T01:11:38.984Z,90.66
2022-09-21T01:12:39.099Z,90.64
2022-09-21T01:13:39.261Z,90.62
2022-09-21T01:14:39.326Z,90.57
2022-09-21T01:15:39.472Z,90.49
2022-09-21T01:16:39.656Z,90.40
2022-09-21T01:17:39.746Z,90.32
2022-09-21T01:18:39.823Z,90.23
2022-09-21T01:19:39.994Z,90.15
2022-09-21T01:20:40.081Z,90.07
2022-09-21T01:21:40.245Z,90.04
2022-09-21T01:22:40.371Z,89.97
2022-09-21T01:23:40.463Z,89.94
2022-09-21T01:24:40.600Z,89.87
2022-09-21T01:25:40.751Z,89.83
2022-09-21T01:26:40.883Z,89.76
2022-09-21T01:27:40.979Z,89.72
2022-09-21T01:28:41.113Z,89.74
2022-09-21T01:29:41.239Z,89.69
2022-09-21T01:30:43.743Z,89.63
2022-09-21T01:31:42.620Z,89.68
2022-09-21T01:32:41.647Z,89.69
2022-09-21T01:33:41.718Z,89.72
2022-09-21T01:34:41.889Z,89.76
2022-09-21T01:35:41.968Z,89.76
2022-09-21T01:36:42.118Z,89.75
2022-09-21T01:37:42.325Z,89.70
2022-09-21T01:38:42.378Z,89.66
2022-09-21T01:39:42.466Z,89.67
2022-09-21T01:40:42.730Z,89.71
2022-09-21T01:41:42.747Z,89.78
2022-09-21T01:42:42.896Z,89.87
2022-09-21T01:43:42.975Z,90.01
2022-09-21T01:44:43.136Z,90.17
2022-09-21T01:45:43.326Z,90.28
2022-09-21T01:46:43.346Z,90.39
2022-09-21T01:47:43.514Z,90.41
2022-09-21T01:48:43.621Z,90.50
2022-09-21T01:49:43.746Z,90.65
2022-09-21T01:50:43.864Z,90.74
2022-09-21T01:51:44.012Z,90.79
2022-09-21T01:52:44.283Z,90.87
2022-09-21T01:53:44.296Z,90.99
2022-09-21T01:54:44.413Z,91.14
2022-09-21T01:55:44.542Z,91.19
2022-09-21T01:56:44.652Z,91.24
2022-09-21T01:57:44.841Z,91.20
2022-09-21T01:58:44.959Z,91.21
2022-09-21T01:59:45.054Z,91.23
2022-09-21T02:00:45.230Z,91.23
2022-09-21T02:01:45.370Z,91.23
2022-09-21T02:02:45.531Z,91.23
2022-09-21T02:03:45.560Z,91.23
2022-09-21T02:04:45.726Z,91.23
2022-09-21T02:05:45.841Z,91.23
2022-09-21T02:06:45.994Z,91.25
2022-09-21T02:07:46.149Z,91.33
2022-09-21T02:08:46.259Z,91.38
2022-09-21T02:09:46.381Z,91.44
2022-09-21T02:10:46.518Z,91.50
2022-09-21T02:11:46.662Z,91.55
2022-09-21T02:12:46.868Z,91.56
2022-09-21T02:13:46.920Z,91.58
2022-09-21T02:14:47.079Z,91.63
2022-09-21T02:15:47.242Z,91.69
2022-09-21T02:16:47.314Z,91.76
2022-09-21T02:17:47.502Z,91.78
2022-09-21T02:18:47.580Z,91.77
2022-09-21T02:19:47.715Z,91.72
2022-09-21T02:20:47.859Z,91.70
2022-09-21T02:21:48.016Z,91.63
2022-09-21T02:22:48.146Z,91.56
2022-09-21T02:23:48.273Z,91.50
2022-09-21T02:24:48.398Z,91.43
2022-09-21T02:25:48.485Z,91.38
2022-09-21T02:26:48.647Z,91.31
2022-09-21T02:27:48.812Z,91.24
2022-09-21T02:28:48.867Z,91.14
2022-09-21T02:29:49.005Z,91.10
2022-09-21T02:30:49.163Z,91.02
2022-09-21T02:31:49.271Z,90.92
2022-09-21T02:32:49.462Z,90.82
2022-09-21T02:33:49.552Z,90.78
2022-09-21T02:34:49.670Z,90.79
2022-09-21T02:35:49.822Z,90.78
2022-09-21T02:36:49.952Z,90.82
2022-09-21T02:37:50.121Z,90.83
2022-09-21T02:38:50.251Z,90.87
2022-09-21T02:39:50.334Z,90.88
2022-09-21T02:40:50.490Z,90.93
2022-09-21T02:41:50.589Z,90.96
2022-09-21T02:42:51.720Z,90.99
2022-09-21T02:43:50.877Z,91.02
2022-09-21T02:44:50.959Z,91.01
2022-09-21T02:45:51.088Z,91.07
2022-09-21T02:46:51.277Z,91.13
2022-09-21T02:47:51.450Z,91.21
2022-09-21T02:48:51.477Z,91.30
2022-09-21T02:49:51.616Z,91.32
2022-09-21T02:50:51.780Z,91.30
2022-09-21T02:51:51.879Z,91.28
2022-09-21T02:52:52.076Z,91.23
2022-09-21T02:53:52.288Z,91.19
2022-09-21T02:54:52.327Z,91.15
2022-09-21T02:55:56.382Z,91.15
2022-09-21T02:56:52.554Z,91.19
2022-09-21T02:57:52.709Z,91.19
2022-09-21T02:58:52.798Z,91.21
2022-09-21T02:59:52.895Z,91.20
2022-09-21T03:00:53.098Z,91.19
2022-09-21T03:01:53.221Z,91.17
2022-09-21T03:02:53.338Z,91.13
2022-09-21T03:03:53.410Z,91.07
2022-09-21T03:04:53.529Z,91.03
2022-09-21T03:05:53.668Z,90.98
2022-09-21T03:06:53.783Z,90.93
2022-09-21T03:07:53.963Z,90.86
2022-09-21T03:08:54.054Z,90.84
2022-09-21T03:09:54.203Z,90.75
2022-09-21T03:10:54.320Z,90.57
2022-09-21T03:11:54.452Z,90.63
2022-09-21T03:12:54.660Z,90.70
2022-09-21T03:13:54.774Z,90.64
2022-09-21T03:14:54.831Z,90.63
2022-09-21T03:15:54.978Z,90.69
2022-09-21T03:16:55.079Z,90.77
2022-09-21T03:17:55.229Z,90.76
2022-09-21T03:18:55.348Z,90.65
2022-09-21T03:19:55.493Z,90.49
2022-09-21T03:20:55.561Z,90.39
2022-09-21T03:21:55.689Z,90.36
2022-09-21T03:22:55.895Z,90.35
2022-09-21T03:23:55.978Z,90.29
2022-09-21T03:24:56.117Z,90.25
2022-09-21T03:25:56.267Z,90.25
2022-09-21T03:26:56.361Z,90.24
2022-09-21T03:27:56.507Z,90.22
2022-09-21T03:28:56.599Z,90.19
2022-09-21T03:30:00.025Z,90.11
2022-09-21T03:30:57.909Z,90.07
2022-09-21T03:31:56.997Z,90.03
2022-09-21T03:32:57.258Z,90.02
2022-09-21T03:33:57.271Z,90.05
2022-09-21T03:34:57.392Z,90.11
2022-09-21T03:35:57.534Z,90.14
2022-09-21T03:36:57.706Z,90.17
2022-09-21T03:37:57.818Z,90.17
2022-09-21T03:38:57.902Z,90.09
2022-09-21T03:39:58.035Z,90.08
2022-09-21T03:40:58.217Z,90.04
2022-09-21T03:41:58.271Z,90.05
2022-09-21T03:42:58.451Z,90.04
2022-09-21T03:43:58.540Z,89.98
2022-09-21T03:44:58.683Z,89.92
2022-09-21T03:45:58.877Z,89.98
2022-09-21T03:46:58.954Z,90.08
2022-09-21T03:47:59.097Z,90.24
2022-09-21T03:48:59.353Z,90.35
2022-09-21T03:49:59.331Z,90.41
2022-09-21T03:50:59.436Z,90.51
2022-09-21T03:51:59.559Z,90.56
2022-09-21T03:52:59.728Z,90.58
2022-09-21T03:53:59.841Z,90.55
2022-09-21T03:54:59.977Z,90.49
2022-09-21T03:56:00.121Z,90.43
2022-09-21T03:57:00.238Z,90.35
2022-09-21T03:58:00.400Z,90.26
2022-09-21T03:59:00.519Z,90.18
2022-09-21T04:00:00.669Z,90.12
2022-09-21T04:01:00.768Z,90.12
2022-09-21T04:02:00.876Z,90.12
2022-09-21T04:03:01.178Z,90.09
2022-09-21T04:04:01.168Z,90.06
2022-09-21T04:05:01.279Z,90.06
2022-09-21T04:06:02.317Z,90.07
2022-09-21T04:07:01.495Z,90.05
2022-09-21T04:08:01.635Z,90.01
2022-09-21T04:09:01.795Z,89.95
2022-09-21T04:10:01.908Z,89.91
2022-09-21T04:11:02.042Z,89.91
2022-09-21T04:12:02.174Z,89.87
2022-09-21T04:13:02.364Z,89.83
2022-09-21T04:14:02.423Z,89.74
2022-09-21T04:15:02.573Z,89.73
2022-09-21T04:16:02.748Z,89.73
2022-09-21T04:17:02.842Z,89.69
2022-09-21T04:18:03.047Z,89.66
2022-09-21T04:19:03.102Z,89.67
2022-09-21T04:20:03.251Z,89.69
2022-09-21T04:21:03.392Z,89.72
2022-09-21T04:22:03.524Z,89.77
2022-09-21T04:23:03.762Z,89.75
2022-09-21T04:24:03.770Z,89.78
2022-09-21T04:25:03.913Z,89.81
2022-09-21T04:26:04.043Z,89.77
2022-09-21T04:27:04.190Z,89.72
2022-09-21T04:28:04.329Z,89.76
2022-09-21T04:29:04.435Z,89.82
2022-09-21T04:30:04.612Z,90.01
2022-09-21T04:31:04.750Z,90.32
2022-09-21T04:32:04.861Z,90.51
2022-09-21T04:33:05.021Z,90.61
2022-09-21T04:34:05.157Z,90.66
2022-09-21T04:35:05.276Z,90.72
2022-09-21T04:36:05.439Z,90.78
2022-09-21T04:37:05.527Z,90.80
2022-09-21T04:38:05.797Z,90.80
2022-09-21T04:39:05.775Z,90.81
2022-09-21T04:40:06.004Z,90.83
2022-09-21T04:41:06.015Z,90.85
2022-09-21T04:42:06.146Z,90.86
2022-09-21T04:43:06.351Z,90.87
2022-09-21T04:44:06.432Z,90.95
2022-09-21T04:45:06.574Z,91.02
2022-09-21T04:46:06.868Z,91.12
2022-09-21T04:47:06.842Z,91.19
2022-09-21T04:48:07.033Z,91.26
2022-09-21T04:49:07.107Z,91.28
2022-09-21T04:50:07.272Z,91.28
2022-09-21T04:51:07.352Z,91.28
2022-09-21T04:52:07.509Z,91.24
2022-09-21T04:53:07.630Z,91.18
2022-09-21T04:54:07.750Z,91.17
2022-09-21T04:55:07.911Z,91.15
2022-09-21T04:56:07.999Z,91.11
2022-09-21T04:57:08.142Z,91.07
2022-09-21T04:58:08.332Z,91.06
2022-09-21T04:59:08.432Z,91.04
2022-09-21T05:00:08.560Z,91.07
2022-09-21T05:01:08.765Z,91.06
2022-09-21T05:02:08.778Z,91.07
2022-09-21T05:03:08.945Z,91.08
2022-09-21T05:04:09.050Z,91.10
2022-09-21T05:05:09.170Z,91.14
2022-09-21T05:06:09.299Z,91.14
2022-09-21T05:07:09.450Z,91.16
2022-09-21T05:08:09.638Z,91.16
2022-09-21T05:09:09.696Z,91.15
2022-09-21T05:10:09.848Z,91.15
2022-09-21T05:11:10.926Z,91.16
2022-09-21T05:12:10.042Z,91.17
2022-09-21T05:13:10.201Z,91.17
2022-09-21T05:14:10.329Z,91.15
2022-09-21T05:15:10.452Z,91.12
2022-09-21T05:16:10.610Z,91.12
2022-09-21T05:17:10.697Z,91.12
2022-09-21T05:18:10.980Z,91.09
2022-09-21T05:19:10.948Z,91.11
2022-09-21T05:20:11.106Z,91.16
2022-09-21T05:21:11.204Z,91.19
2022-09-21T05:22:11.344Z,91.22
2022-09-21T05:23:16.131Z,91.27
2022-09-21T05:24:12.574Z,91.34
2022-09-21T05:25:11.694Z,91.36
2022-09-21T05:26:11.825Z,91.40
2022-09-21T05:27:11.960Z,91.45
2022-09-21T05:28:12.106Z,91.49
2022-09-21T05:29:12.235Z,91.51
2022-09-21T05:30:12.366Z,91.53
2022-09-21T05:31:18.152Z,91.57
2022-09-21T05:32:13.681Z,91.61
2022-09-21T05:33:12.827Z,91.66
2022-09-21T05:34:12.933Z,91.70
2022-09-21T05:35:13.047Z,91.74
2022-09-21T05:36:13.173Z,91.74
2022-09-21T05:37:13.297Z,91.75
2022-09-21T05:38:13.420Z,91.75
2022-09-21T05:39:13.528Z,91.74
2022-09-21T05:40:13.753Z,91.73
2022-09-21T05:41:13.855Z,91.72
2022-09-21T05:42:13.922Z,91.68
2022-09-21T05:43:14.143Z,91.67
2022-09-21T05:44:14.216Z,91.67
2022-09-21T05:45:14.329Z,91.67
2022-09-21T05:46:14.479Z,91.65
2022-09-21T05:47:14.567Z,91.63
2022-09-21T05:48:14.718Z,91.61
2022-09-21T05:49:14.870Z,91.57
2022-09-21T05:50:14.936Z,91.53
2022-09-21T05:51:15.086Z,91.50
2022-09-21T05:52:15.215Z,91.47
2022-09-21T05:53:15.435Z,91.46
2022-09-21T05:54:15.506Z,91.43
2022-09-21T05:55:15.597Z,91.42
2022-09-21T05:56:15.744Z,91.42
2022-09-21T05:57:15.841Z,91.44
2022-09-21T05:58:16.021Z,91.43
2022-09-21T05:59:16.132Z,91.41
2022-09-21T06:00:16.265Z,91.39
2022-09-21T06:01:16.360Z,91.38
2022-09-21T06:02:16.533Z,91.36
2022-09-21T06:03:17.830Z,91.37
2022-09-21T06:04:16.752Z,91.32
2022-09-21T06:05:16.896Z,91.27
2022-09-21T06:06:17.022Z,91.27
2022-09-21T06:07:17.142Z,91.24
2022-09-21T06:08:17.369Z,91.21
2022-09-21T06:09:17.429Z,91.22
2022-09-21T06:10:17.563Z,91.17
2022-09-21T06:11:17.690Z,91.11
2022-09-21T06:12:17.851Z,91.07
2022-09-21T06:13:17.970Z,91.02
2022-09-21T06:14:18.128Z,91.08
2022-09-21T06:15:18.225Z,91.18
2022-09-21T06:16:18.402Z,91.18
2022-09-21T06:17:18.428Z,91.20
2022-09-21T06:18:18.596Z,91.18
2022-09-21T06:19:18.690Z,90.96
2022-09-21T06:20:18.872Z,90.69
2022-09-21T06:21:18.967Z,90.50
2022-09-21T06:22:19.084Z,90.09
2022-09-21T06:23:19.214Z,89.66
2022-09-21T06:24:19.350Z,89.10
2022-09-21T06:25:19.996Z,88.42
2022-09-21T06:26:19.597Z,87.92
2022-09-21T06:27:19.697Z,87.17
2022-09-21T06:28:19.915Z,86.77
2022-09-21T06:29:19.986Z,86.82
2022-09-21T06:30:20.081Z,86.88
2022-09-21T06:31:20.205Z,86.43
2022-09-21T06:32:20.931Z,86.22
2022-09-21T06:33:20.628Z,86.06
2022-09-21T06:34:20.605Z,85.76
2022-09-21T06:35:20.745Z,85.58
2022-09-21T06:36:20.871Z,85.38
2022-09-21T06:37:20.993Z,85.66
2022-09-21T06:38:21.182Z,85.86
2022-09-21T06:39:21.288Z,85.70
2022-09-21T06:40:21.436Z,85.46
2022-09-21T06:41:21.673Z,85.39
2022-09-21T06:42:21.621Z,85.55
2022-09-21T06:43:21.813Z,85.65
2022-09-21T06:44:21.892Z,85.62
2022-09-21T06:45:22.044Z,85.65
2022-09-21T06:46:22.177Z,85.41
2022-09-21T06:47:22.252Z,85.13
2022-09-21T06:48:22.463Z,84.65
2022-09-21T06:49:22.530Z,84.43
2022-09-21T06:50:22.651Z,83.88
2022-09-21T06:51:22.778Z,83.64
2022-09-21T06:52:22.920Z,83.25
2022-09-21T06:53:23.146Z,83.27
2022-09-21T06:54:23.237Z,83.49
2022-09-21T06:55:23.312Z,82.18
2022-09-21T06:56:23.489Z,81.92
2022-09-21T06:57:23.588Z,82.35
2022-09-21T06:58:23.758Z,82.64
2022-09-21T06:59:23.807Z,83.00
2022-09-21T07:00:23.908Z,83.13
2022-09-21T07:01:24.112Z,83.11
2022-09-21T07:02:24.097Z,82.03
2022-09-21T07:03:24.267Z,81.09
2022-09-21T07:04:25.212Z,80.57
2022-09-21T07:05:24.477Z,80.14
2022-09-21T07:06:24.576Z,80.37
2022-09-21T07:07:24.656Z,80.84
2022-09-21T07:10:26.118Z,80.88
2022-09-21T07:11:25.188Z,80.24
2022-09-21T07:12:25.307Z,80.08
2022-09-21T07:13:25.647Z,79.56
2022-09-21T07:14:25.519Z,78.77
2022-09-21T07:15:25.676Z,78.06
2022-09-21T07:16:25.827Z,77.90
2022-09-21T07:17:25.915Z,77.31
2022-09-21T07:18:26.069Z,75.32
2022-09-21T07:19:26.167Z,73.83
2022-09-21T07:20:26.264Z,73.07
2022-09-21T07:21:26.365Z,73.37
2022-09-21T07:22:26.481Z,75.29
2022-09-21T07:23:26.644Z,76.22
2022-09-21T07:24:26.717Z,75.72
2022-09-21T07:25:26.868Z,75.05
2022-09-21T07:26:26.955Z,74.57
2022-09-21T07:27:27.104Z,73.81
2022-09-21T07:28:27.213Z,73.55
2022-09-21T07:29:27.342Z,73.58
2022-09-21T07:30:27.451Z,73.46
2022-09-21T07:31:27.569Z,73.84
2022-09-21T07:32:27.672Z,74.88
2022-09-21T07:33:27.850Z,75.06
2022-09-21T07:34:27.925Z,75.66
2022-09-21T07:35:28.049Z,75.80
2022-09-21T07:36:28.129Z,76.03
2022-09-21T07:37:28.264Z,76.96
2022-09-21T07:38:28.454Z,76.54
2022-09-21T07:39:28.552Z,76.81
2022-09-21T07:40:28.761Z,77.85
2022-09-21T07:41:28.770Z,77.79
2022-09-21T07:42:28.891Z,77.80
2022-09-21T07:43:29.022Z,78.15
2022-09-21T07:44:29.311Z,78.41
2022-09-21T07:45:29.281Z,78.28
2022-09-21T07:46:29.401Z,78.66
2022-09-21T07:47:29.500Z,78.48
2022-09-21T07:48:29.651Z,78.68
2022-09-21T07:49:29.771Z,79.35
2022-09-21T07:50:29.871Z,79.66
2022-09-21T07:51:29.971Z,80.44
2022-09-21T07:52:30.059Z,79.31
2022-09-21T07:53:30.230Z,79.29
2022-09-21T07:54:30.351Z,79.45
2022-09-21T07:55:30.429Z,79.71
2022-09-21T07:56:30.572Z,80.78
2022-09-21T07:57:30.698Z,80.33
2022-09-21T07:58:31.029Z,80.25
2022-09-21T07:59:30.987Z,79.68
2022-09-21T08:00:31.104Z,79.63
2022-09-21T08:01:31.320Z,79.55
2022-09-21T08:02:31.335Z,79.18
2022-09-21T08:03:31.463Z,78.93
2022-09-21T08:04:31.568Z,79.38
2022-09-21T08:05:31.721Z,79.05
2022-09-21T08:06:31.859Z,78.31
2022-09-21T08:07:32.626Z,77.44
2022-09-21T08:08:32.136Z,77.28
2022-09-21T08:09:32.324Z,77.55
2022-09-21T08:10:32.332Z,78.52
2022-09-21T08:11:32.489Z,78.69
2022-09-21T08:12:32.560Z,79.10
2022-09-21T08:13:32.803Z,79.28
2022-09-21T08:14:32.837Z,79.44
2022-09-21T08:15:50.154Z,79.40
2022-09-21T08:16:34.253Z,79.00
2022-09-21T08:17:33.149Z,79.48
2022-09-21T08:18:33.291Z,80.05
2022-09-21T08:19:33.493Z,80.17
2022-09-21T08:20:33.484Z,79.39
2022-09-21T08:21:33.623Z,78.77
2022-09-21T08:22:33.783Z,77.73
2022-09-21T08:23:33.932Z,77.18
2022-09-21T08:24:33.995Z,77.53
2022-09-21T08:25:34.097Z,77.89
2022-09-21T08:26:34.241Z,78.04
2022-09-21T08:27:34.284Z,78.41
2022-09-21T08:28:34.484Z,76.84
2022-09-21T08:29:34.528Z,76.32
2022-09-21T08:30:34.673Z,76.26
2022-09-21T08:31:34.769Z,75.66
2022-09-21T08:32:50.567Z,75.78
2022-09-21T08:33:36.186Z,75.97
2022-09-21T08:34:35.163Z,75.21
2022-09-21T08:35:35.282Z,75.58
2022-09-21T08:36:35.382Z,74.89
2022-09-21T08:37:35.543Z,73.42
2022-09-21T08:38:35.673Z,72.31
2022-09-21T08:39:35.833Z,73.16
2022-09-21T08:40:35.995Z,72.61
2022-09-21T08:41:36.041Z,71.73
2022-09-21T08:42:36.122Z,71.58
2022-09-21T08:43:36.329Z,71.47
2022-09-21T08:44:36.470Z,70.08
2022-09-21T08:45:36.501Z,69.61
2022-09-21T08:46:36.731Z,70.31
2022-09-21T08:47:36.781Z,70.17
2022-09-21T08:48:37.126Z,69.76
2022-09-21T08:49:37.042Z,69.20
2022-09-21T08:50:37.133Z,68.67
2022-09-21T08:51:37.245Z,68.84
2022-09-21T08:52:37.372Z,67.62
2022-09-21T08:53:37.662Z,68.47
2022-09-21T08:54:37.589Z,67.94
2022-09-21T08:55:37.681Z,65.15
2022-09-21T08:57:03.530Z,65.28
2022-09-21T08:57:38.946Z,64.40
2022-09-21T08:58:38.170Z,65.73
2022-09-21T08:59:38.230Z,66.52
2022-09-21T09:00:38.424Z,67.75
2022-09-21T09:01:38.541Z,68.92
2022-09-21T09:02:38.601Z,68.90
2022-09-21T09:03:41.167Z,68.09
2022-09-21T09:04:38.872Z,66.71
2022-09-21T09:05:38.997Z,66.72
2022-09-21T09:06:39.099Z,64.60
2022-09-21T09:07:39.210Z,64.45
2022-09-21T09:08:39.388Z,66.44
2022-09-21T09:09:39.429Z,65.20
2022-09-21T09:10:39.613Z,65.27
2022-09-21T09:11:39.709Z,65.70
2022-09-21T09:12:39.808Z,61.75
2022-09-21T09:13:40.061Z,62.03
2022-09-21T09:14:40.128Z,62.86
2022-09-21T09:15:40.248Z,62.48
2022-09-21T09:16:40.365Z,62.81
2022-09-21T09:17:40.468Z,65.42
2022-09-21T09:18:43.532Z,66.57
2022-09-21T09:19:40.667Z,65.83
2022-09-21T09:20:40.850Z,63.40
2022-09-21T09:21:40.947Z,61.15
2022-09-21T09:22:41.061Z,61.09
2022-09-21T09:23:41.188Z,63.53
2022-09-21T09:24:41.288Z,64.71
2022-09-21T09:25:41.403Z,64.49
2022-09-21T09:26:41.496Z,64.71
2022-09-21T09:27:41.659Z,63.46
2022-09-21T09:28:41.817Z,61.32
2022-09-21T09:29:41.858Z,60.95
2022-09-21T09:30:42.028Z,62.60
2022-09-21T09:31:42.206Z,60.80
2022-09-21T09:32:42.226Z,60.27
2022-09-21T09:33:42.383Z,59.67
2022-09-21T09:34:42.426Z,59.15
2022-09-21T09:35:42.539Z,59.25
2022-09-21T09:36:57.836Z,58.99
2022-09-21T09:37:43.766Z,58.73
2022-09-21T09:38:42.998Z,59.25
2022-09-21T09:39:42.997Z,61.97
2022-09-21T09:40:43.128Z,57.91
2022-09-21T09:41:43.217Z,58.32
2022-09-21T09:42:43.397Z,57.30
2022-09-21T09:43:43.666Z,57.66
2022-09-21T09:44:43.627Z,57.89
2022-09-21T09:45:43.736Z,59.97
2022-09-21T09:46:43.893Z,60.37
2022-09-21T09:47:43.966Z,59.56
2022-09-21T09:48:44.127Z,60.23
2022-09-21T09:49:44.204Z,60.84
2022-09-21T09:50:44.307Z,60.09
2022-09-21T09:51:44.416Z,56.35
2022-09-21T09:52:44.508Z,55.17
2022-09-21T09:53:44.686Z,55.71
2022-09-21T09:54:44.789Z,55.41
2022-09-21T09:55:44.884Z,55.19
2022-09-21T09:56:45.054Z,59.85
2022-09-21T09:57:45.164Z,59.82
2022-09-21T09:58:45.316Z,57.97
2022-09-21T09:59:45.385Z,56.13
2022-09-21T10:00:45.481Z,55.70
2022-09-21T10:01:45.655Z,55.56
2022-09-21T10:02:45.785Z,57.43
2022-09-21T10:03:45.893Z,57.59
2022-09-21T10:04:46.153Z,53.27
2022-09-21T10:05:46.105Z,56.84
2022-09-21T10:06:47.123Z,56.35
2022-09-21T10:07:46.338Z,55.78
2022-09-21T10:08:46.487Z,56.18
2022-09-21T10:09:46.565Z,56.94
2022-09-21T10:10:46.745Z,55.70
2022-09-21T10:11:46.855Z,56.22
2022-09-21T10:12:46.954Z,56.81
2022-09-21T10:13:47.147Z,56.61
2022-09-21T10:14:47.403Z,56.76
2022-09-21T10:15:47.325Z,55.84
2022-09-21T10:16:47.456Z,54.77
2022-09-21T10:17:47.574Z,54.84
2022-09-21T10:18:47.824Z,56.39
2022-09-21T10:19:47.824Z,56.12
2022-09-21T10:20:47.923Z,55.25
2022-09-21T10:21:51.985Z,55.13
2022-09-21T10:22:48.194Z,57.64
2022-09-21T10:23:48.390Z,55.64
2022-09-21T10:24:48.414Z,54.86
2022-09-21T10:25:48.534Z,55.91
2022-09-21T10:26:48.629Z,55.37
2022-09-21T10:27:48.774Z,54.82
2022-09-21T10:28:49.065Z,54.46
2022-09-21T10:29:49.074Z,53.98
2022-09-21T10:30:49.235Z,54.49
2022-09-21T10:31:49.303Z,55.35
2022-09-21T10:32:49.403Z,56.27
2022-09-21T10:33:49.575Z,52.96
2022-09-21T10:34:49.634Z,53.30
2022-09-21T10:35:49.743Z,52.65
2022-09-21T10:36:49.871Z,53.09
2022-09-21T10:37:49.973Z,53.19
2022-09-21T10:38:50.098Z,52.79
2022-09-21T10:39:50.223Z,53.83
2022-09-21T10:40:50.463Z,55.21
2022-09-21T10:41:50.447Z,56.05
2022-09-21T10:42:50.596Z,55.95
2022-09-21T10:43:50.736Z,54.90
2022-09-21T10:44:50.843Z,54.54
2022-09-21T10:45:50.947Z,54.45
2022-09-21T10:46:51.180Z,55.13
2022-09-21T10:47:51.203Z,55.42
2022-09-21T10:48:51.364Z,55.01
2022-09-21T10:49:51.465Z,54.90
2022-09-21T10:50:51.584Z,53.84
2022-09-21T10:51:51.670Z,54.77
2022-09-21T10:52:51.761Z,55.83
2022-09-21T10:53:53.921Z,53.70
2022-09-21T10:54:52.077Z,52.44
2022-09-21T10:56:04.869Z,52.52
2022-09-21T10:56:53.242Z,52.59
2022-09-21T10:57:52.381Z,53.91
2022-09-21T10:58:52.582Z,53.01
2022-09-21T10:59:52.692Z,52.27
2022-09-21T11:00:52.802Z,52.82
2022-09-21T11:01:53.016Z,54.56
2022-09-21T11:02:53.114Z,53.23
2022-09-21T11:03:53.222Z,54.25
2022-09-21T11:04:53.342Z,54.89
2022-09-21T11:05:53.462Z,53.15
2022-09-21T11:06:53.581Z,53.73
2022-09-21T11:07:53.690Z,54.66
2022-09-21T11:08:53.834Z,54.03
2022-09-21T11:09:53.932Z,54.44
2022-09-21T11:10:54.056Z,54.26
2022-09-21T11:11:54.161Z,54.80
2022-09-21T11:12:54.260Z,55.44
2022-09-21T11:13:54.402Z,53.38
2022-09-21T11:14:54.490Z,54.38
2022-09-21T11:15:54.846Z,55.42
2022-09-21T11:16:54.720Z,54.43
2022-09-21T11:17:54.882Z,52.95
2022-09-21T11:18:55.135Z,53.70
2022-09-21T11:19:55.100Z,53.36
2022-09-21T11:20:55.199Z,54.31
2022-09-21T11:21:55.290Z,52.61
2022-09-21T11:22:57.557Z,53.21
2022-09-21T11:23:55.589Z,52.35
2022-09-21T11:24:55.680Z,52.26
2022-09-21T11:25:55.782Z,52.16
2022-09-21T11:26:55.889Z,52.22
2022-09-21T11:27:55.992Z,53.20
2022-09-21T11:28:56.230Z,52.27
2022-09-21T11:29:56.290Z,53.82
2022-09-21T11:30:56.445Z,51.25
2022-09-21T11:31:57.323Z,50.78
2022-09-21T11:32:56.630Z,51.98
2022-09-21T11:33:56.809Z,51.96
2022-09-21T11:34:56.869Z,51.71
2022-09-21T11:35:56.992Z,52.28
2022-09-21T11:36:57.087Z,51.42
2022-09-21T11:37:57.239Z,50.78
2022-09-21T11:38:57.399Z,52.08
2022-09-21T11:39:57.448Z,51.31
2022-09-21T11:40:57.613Z,50.83
2022-09-21T11:41:57.659Z,50.16
2022-09-21T11:42:57.771Z,53.52
2022-09-21T11:44:00.579Z,52.36
2022-09-21T11:44:58.527Z,51.00
2022-09-21T11:45:58.141Z,50.90
2022-09-21T11:46:58.248Z,50.90
2022-09-21T11:47:58.347Z,51.86
2022-09-21T11:48:58.517Z,50.68
2022-09-21T11:50:19.214Z,51.37
2022-09-21T11:50:59.690Z,49.11
2022-09-21T11:51:59.483Z,48.52
2022-09-21T11:52:58.976Z,48.84
2022-09-21T11:53:59.097Z,49.52
2022-09-21T11:54:59.218Z,50.59
2022-09-21T11:55:59.317Z,52.54
2022-09-21T11:56:59.427Z,53.08
2022-09-21T11:57:59.538Z,53.82
2022-09-21T11:58:59.717Z,54.99
2022-09-21T11:59:59.765Z,54.43
2022-09-21T12:00:59.896Z,54.67
2022-09-21T12:02:00.077Z,55.04
2022-09-21T12:03:00.117Z,55.99
2022-09-21T12:04:00.327Z,55.84
2022-09-21T12:05:00.385Z,55.54
2022-09-21T12:06:00.505Z,55.31
2022-09-21T12:07:00.616Z,54.75
2022-09-21T12:08:00.706Z,56.06
2022-09-21T12:09:00.886Z,57.22
2022-09-21T12:10:00.985Z,55.44
2022-09-21T12:11:01.086Z,56.83
2022-09-21T12:12:01.195Z,55.23
2022-09-21T12:13:01.305Z,53.90
2022-09-21T12:14:01.445Z,53.60
2022-09-21T12:15:01.596Z,55.09
2022-09-21T12:16:01.696Z,53.21
2022-09-21T12:17:01.834Z,52.39
2022-09-21T12:18:01.942Z,50.41
2022-09-21T12:19:02.076Z,50.53
2022-09-21T12:20:02.193Z,50.73
2022-09-21T12:21:02.284Z,49.71
2022-09-21T12:22:02.431Z,47.76
2022-09-21T12:23:02.583Z,48.56
2022-09-21T12:24:02.833Z,49.61
2022-09-21T12:25:02.824Z,50.09
2022-09-21T12:26:02.939Z,50.00
2022-09-21T12:27:03.044Z,49.67
2022-09-21T12:28:03.145Z,47.82
2022-09-21T12:29:03.312Z,49.12
2022-09-21T12:30:03.358Z,49.60
2022-09-21T12:31:03.551Z,51.01
2022-09-21T12:32:03.644Z,51.39
2022-09-21T12:33:03.756Z,49.96
2022-09-21T12:34:03.910Z,48.66
2022-09-21T12:35:03.962Z,47.06
2022-09-21T12:36:04.073Z,46.96
2022-09-21T12:37:04.174Z,46.68
2022-09-21T12:38:04.333Z,46.94
2022-09-21T12:39:04.680Z,50.48
2022-09-21T12:40:04.589Z,48.85
2022-09-21T12:41:04.667Z,49.65
2022-09-21T12:42:04.813Z,48.77
2022-09-21T12:43:04.997Z,49.48
2022-09-21T12:44:05.152Z,48.79
2022-09-21T12:45:05.171Z,49.48
2022-09-21T12:46:05.342Z,48.95
2022-09-21T12:47:05.433Z,50.50
2022-09-21T12:48:05.521Z,50.65
2022-09-21T12:49:05.706Z,50.88
2022-09-21T12:50:05.821Z,49.19
2022-09-21T12:51:06.429Z,49.67
2022-09-21T12:52:06.070Z,50.00
2022-09-21T12:53:06.180Z,49.95
2022-09-21T12:54:06.382Z,49.19
2022-09-21T12:55:06.420Z,49.67
2022-09-21T12:56:09.643Z,51.65